sensor_id;sensor_type;location;lat;lon;timestamp;temperature;humidity
5930;DHT22;2990;48.746;9.236;2023-02-16T00:01:27;3.90;1.00
5930;DHT22;2990;48.746;9.236;2023-02-16T00:03:54;3.80;1.00
5930;DHT22;2990;48.746;9.236;2023-02-16T00:06:20;3.70;1.00
5930;DHT22;2990;48.746;9.236;2023-02-16T00:08:47;3.70;1.00
5930;DHT22;2990;48.746;9.236;2023-02-16T00:14:00;3.60;3.80
5930;DHT22;2990;48.746;9.236;2023-02-16T00:16:26;3.50;51.90
5930;DHT22;2990;48.746;9.236;2023-02-16T00:18:52;3.50;94.70
5930;DHT22;2990;48.746;9.236;2023-02-16T00:21:18;3.40;99.90
5930;DHT22;2990;48.746;9.236;2023-02-16T00:23:44;3.40;99.90
5930;DHT22;2990;48.746;9.236;2023-02-16T00:26:15;3.40;99.90
5930;DHT22;2990;48.746;9.236;2023-02-16T00:28:42;3.40;99.90
5930;DHT22;2990;48.746;9.236;2023-02-16T00:31:15;3.40;99.90
5930;DHT22;2990;48.746;9.236;2023-02-16T00:33:41;3.30;99.90
5930;DHT22;2990;48.746;9.236;2023-02-16T00:36:07;3.30;99.90
5930;DHT22;2990;48.746;9.236;2023-02-16T00:38:32;3.20;99.90
5930;DHT22;2990;48.746;9.236;2023-02-16T00:40:58;3.20;99.90
5930;DHT22;2990;48.746;9.236;2023-02-16T00:43:26;3.20;1.00
5930;DHT22;2990;48.746;9.236;2023-02-16T00:45:53;3.20;1.00
5930;DHT22;2990;48.746;9.236;2023-02-16T00:48:19;3.10;1.00
5930;DHT22;2990;48.746;9.236;2023-02-16T00:50:45;3.00;1.00
5930;DHT22;2990;48.746;9.236;2023-02-16T00:53:10;3.00;1.00
5930;DHT22;2990;48.746;9.236;2023-02-16T00:55:37;2.90;9.60
5930;DHT22;2990;48.746;9.236;2023-02-16T00:58:07;2.80;46.20
5930;DHT22;2990;48.746;9.236;2023-02-16T01:00:40;2.80;99.90
5930;DHT22;2990;48.746;9.236;2023-02-16T01:03:18;2.70;99.90
5930;DHT22;2990;48.746;9.236;2023-02-16T01:05:44;2.60;1.00
5930;DHT22;2990;48.746;9.236;2023-02-16T01:08:14;2.50;1.00
5930;DHT22;2990;48.746;9.236;2023-02-16T01:11:01;2.50;1.00
5930;DHT22;2990;48.746;9.236;2023-02-16T01:13:44;2.40;99.90
5930;DHT22;2990;48.746;9.236;2023-02-16T01:16:20;2.40;1.00
5930;DHT22;2990;48.746;9.236;2023-02-16T01:18:47;2.30;1.00
5930;DHT22;2990;48.746;9.236;2023-02-16T01:21:12;2.30;99.90
5930;DHT22;2990;48.746;9.236;2023-02-16T01:23:38;2.20;99.90
5930;DHT22;2990;48.746;9.236;2023-02-16T01:26:15;2.20;1.00
5930;DHT22;2990;48.746;9.236;2023-02-16T01:28:42;2.20;1.00
5930;DHT22;2990;48.746;9.236;2023-02-16T01:31:11;2.20;1.00
5930;DHT22;2990;48.746;9.236;2023-02-16T01:33:37;2.20;1.00
5930;DHT22;2990;48.746;9.236;2023-02-16T01:36:03;2.20;1.00
5930;DHT22;2990;48.746;9.236;2023-02-16T01:38:29;2.20;1.00
5930;DHT22;2990;48.746;9.236;2023-02-16T01:41:08;2.20;1.00
5930;DHT22;2990;48.746;9.236;2023-02-16T01:43:56;2.20;1.00
5930;DHT22;2990;48.746;9.236;2023-02-16T01:49:13;2.30;99.90
5930;DHT22;2990;48.746;9.236;2023-02-16T01:52:01;2.40;1.00
5930;DHT22;2990;48.746;9.236;2023-02-16T02:02:17;2.70;99.90
5930;DHT22;2990;48.746;9.236;2023-02-16T02:04:50;2.70;99.90
5930;DHT22;2990;48.746;9.236;2023-02-16T02:08:15;2.70;46.50
5930;DHT22;2990;48.746;9.236;2023-02-16T02:13:28;2.70;1.00
5930;DHT22;2990;48.746;9.236;2023-02-16T02:15:57;2.70;1.00
5930;DHT22;2990;48.746;9.236;2023-02-16T02:18:23;2.70;1.00
5930;DHT22;2990;48.746;9.236;2023-02-16T02:21:27;2.70;1.00
5930;DHT22;2990;48.746;9.236;2023-02-16T02:24:51;2.80;1.00
5930;DHT22;2990;48.746;9.236;2023-02-16T02:27:24;2.80;1.00
5930;DHT22;2990;48.746;9.236;2023-02-16T02:30:14;2.90;99.90
5930;DHT22;2990;48.746;9.236;2023-02-16T02:33:19;2.80;99.90
5930;DHT22;2990;48.746;9.236;2023-02-16T02:36:21;2.90;99.90
5930;DHT22;2990;48.746;9.236;2023-02-16T02:38:55;2.90;99.90
5930;DHT22;2990;48.746;9.236;2023-02-16T02:41:32;2.80;99.90
5930;DHT22;2990;48.746;9.236;2023-02-16T02:44:21;2.80;99.90
5930;DHT22;2990;48.746;9.236;2023-02-16T02:46:47;2.70;99.90
5930;DHT22;2990;48.746;9.236;2023-02-16T02:49:14;2.80;99.90
5930;DHT22;2990;48.746;9.236;2023-02-16T02:51:39;2.80;99.90
5930;DHT22;2990;48.746;9.236;2023-02-16T02:57:38;2.80;99.90
5930;DHT22;2990;48.746;9.236;2023-02-16T03:00:24;2.70;99.90
5930;DHT22;2990;48.746;9.236;2023-02-16T03:03:25;2.70;99.90
5930;DHT22;2990;48.746;9.236;2023-02-16T03:08:40;2.70;99.90
5930;DHT22;2990;48.746;9.236;2023-02-16T03:11:14;2.60;99.90
5930;DHT22;2990;48.746;9.236;2023-02-16T03:14:12;2.50;99.90
5930;DHT22;2990;48.746;9.236;2023-02-16T03:17:06;2.50;1.00
5930;DHT22;2990;48.746;9.236;2023-02-16T03:19:51;2.40;1.00
5930;DHT22;2990;48.746;9.236;2023-02-16T03:22:36;2.50;1.00
5930;DHT22;2990;48.746;9.236;2023-02-16T03:25:26;2.50;1.00
5930;DHT22;2990;48.746;9.236;2023-02-16T03:28:12;2.40;1.00
5930;DHT22;2990;48.746;9.236;2023-02-16T03:30:57;2.40;1.00
5930;DHT22;2990;48.746;9.236;2023-02-16T03:33:23;2.30;1.00
5930;DHT22;2990;48.746;9.236;2023-02-16T03:35:50;2.30;28.50
5930;DHT22;2990;48.746;9.236;2023-02-16T03:38:16;2.40;99.90
5930;DHT22;2990;48.746;9.236;2023-02-16T03:40:44;2.40;10.80
5930;DHT22;2990;48.746;9.236;2023-02-16T03:43:10;2.40;1.00
5930;DHT22;2990;48.746;9.236;2023-02-16T03:45:38;2.40;61.80
5930;DHT22;2990;48.746;9.236;2023-02-16T03:48:05;2.40;99.90
5930;DHT22;2990;48.746;9.236;2023-02-16T03:50:30;2.40;67.30
5930;DHT22;2990;48.746;9.236;2023-02-16T03:52:56;2.40;1.70
5930;DHT22;2990;48.746;9.236;2023-02-16T03:55:42;2.40;1.00
5930;DHT22;2990;48.746;9.236;2023-02-16T03:58:11;2.50;1.00
5930;DHT22;2990;48.746;9.236;2023-02-16T04:00:37;2.50;1.00
5930;DHT22;2990;48.746;9.236;2023-02-16T04:03:04;2.40;1.00
5930;DHT22;2990;48.746;9.236;2023-02-16T04:05:31;2.40;56.90
5930;DHT22;2990;48.746;9.236;2023-02-16T04:07:57;2.40;99.90
5930;DHT22;2990;48.746;9.236;2023-02-16T04:10:23;2.40;99.90
5930;DHT22;2990;48.746;9.236;2023-02-16T04:12:49;2.40;99.90
5930;DHT22;2990;48.746;9.236;2023-02-16T04:15:18;2.40;99.90
5930;DHT22;2990;48.746;9.236;2023-02-16T04:17:44;2.50;99.90
5930;DHT22;2990;48.746;9.236;2023-02-16T04:20:14;2.60;22.90
5930;DHT22;2990;48.746;9.236;2023-02-16T04:22:41;2.60;1.00
5930;DHT22;2990;48.746;9.236;2023-02-16T04:25:07;2.60;1.00
5930;DHT22;2990;48.746;9.236;2023-02-16T04:27:42;2.70;1.00
5930;DHT22;2990;48.746;9.236;2023-02-16T04:30:19;2.70;1.00
5930;DHT22;2990;48.746;9.236;2023-02-16T04:32:45;2.70;1.00
5930;DHT22;2990;48.746;9.236;2023-02-16T04:35:11;2.70;1.00
5930;DHT22;2990;48.746;9.236;2023-02-16T04:37:37;2.70;1.00
5930;DHT22;2990;48.746;9.236;2023-02-16T04:40:03;2.70;1.00
5930;DHT22;2990;48.746;9.236;2023-02-16T04:42:29;2.60;1.00
5930;DHT22;2990;48.746;9.236;2023-02-16T04:44:55;2.60;1.00
5930;DHT22;2990;48.746;9.236;2023-02-16T04:47:20;2.60;1.00
5930;DHT22;2990;48.746;9.236;2023-02-16T04:49:47;2.60;1.00
5930;DHT22;2990;48.746;9.236;2023-02-16T04:52:13;2.50;1.00
5930;DHT22;2990;48.746;9.236;2023-02-16T04:54:38;2.50;49.50
5930;DHT22;2990;48.746;9.236;2023-02-16T04:57:04;2.40;99.90
5930;DHT22;2990;48.746;9.236;2023-02-16T04:59:30;2.40;99.90
5930;DHT22;2990;48.746;9.236;2023-02-16T05:01:56;2.30;1.00
5930;DHT22;2990;48.746;9.236;2023-02-16T05:04:23;2.30;1.00
5930;DHT22;2990;48.746;9.236;2023-02-16T05:06:49;2.30;1.00
5930;DHT22;2990;48.746;9.236;2023-02-16T05:09:15;2.30;51.10
5930;DHT22;2990;48.746;9.236;2023-02-16T05:11:40;2.30;69.30
5930;DHT22;2990;48.746;9.236;2023-02-16T05:14:34;2.30;99.90
5930;DHT22;2990;48.746;9.236;2023-02-16T05:17:21;2.40;99.90
5930;DHT22;2990;48.746;9.236;2023-02-16T05:19:49;2.50;1.00
5930;DHT22;2990;48.746;9.236;2023-02-16T05:22:16;2.60;1.00
5930;DHT22;2990;48.746;9.236;2023-02-16T05:24:42;2.60;1.00
5930;DHT22;2990;48.746;9.236;2023-02-16T05:27:12;2.60;99.90
5930;DHT22;2990;48.746;9.236;2023-02-16T05:29:38;2.60;99.90
5930;DHT22;2990;48.746;9.236;2023-02-16T05:32:03;2.60;99.90
5930;DHT22;2990;48.746;9.236;2023-02-16T05:34:29;2.60;99.90
5930;DHT22;2990;48.746;9.236;2023-02-16T05:36:55;2.50;99.90
5930;DHT22;2990;48.746;9.236;2023-02-16T05:39:21;2.60;1.00
5930;DHT22;2990;48.746;9.236;2023-02-16T05:41:47;2.60;1.00
5930;DHT22;2990;48.746;9.236;2023-02-16T05:44:12;2.60;1.00
5930;DHT22;2990;48.746;9.236;2023-02-16T05:46:39;2.70;1.00
5930;DHT22;2990;48.746;9.236;2023-02-16T05:49:06;2.70;1.00
5930;DHT22;2990;48.746;9.236;2023-02-16T05:51:33;2.70;1.00
5930;DHT22;2990;48.746;9.236;2023-02-16T05:53:59;2.70;99.90
5930;DHT22;2990;48.746;9.236;2023-02-16T05:56:25;2.80;99.90
5930;DHT22;2990;48.746;9.236;2023-02-16T05:58:51;2.70;99.90
5930;DHT22;2990;48.746;9.236;2023-02-16T06:01:18;2.70;99.90
5930;DHT22;2990;48.746;9.236;2023-02-16T06:03:44;2.70;1.00
5930;DHT22;2990;48.746;9.236;2023-02-16T06:06:10;2.60;99.90
5930;DHT22;2990;48.746;9.236;2023-02-16T06:08:36;2.50;1.00
5930;DHT22;2990;48.746;9.236;2023-02-16T06:11:02;2.40;1.00
5930;DHT22;2990;48.746;9.236;2023-02-16T06:13:31;2.30;51.80
5930;DHT22;2990;48.746;9.236;2023-02-16T06:15:57;2.20;99.90
5930;DHT22;2990;48.746;9.236;2023-02-16T06:18:23;2.10;1.00
5930;DHT22;2990;48.746;9.236;2023-02-16T06:20:49;2.10;99.90
5930;DHT22;2990;48.746;9.236;2023-02-16T06:23:15;2.20;99.90
5930;DHT22;2990;48.746;9.236;2023-02-16T06:25:45;2.20;1.00
5930;DHT22;2990;48.746;9.236;2023-02-16T06:28:12;2.20;99.90
5930;DHT22;2990;48.746;9.236;2023-02-16T06:30:38;2.20;1.00
5930;DHT22;2990;48.746;9.236;2023-02-16T06:33:03;2.30;1.00
5930;DHT22;2990;48.746;9.236;2023-02-16T06:35:29;2.30;1.00
5930;DHT22;2990;48.746;9.236;2023-02-16T06:37:55;2.30;1.00
5930;DHT22;2990;48.746;9.236;2023-02-16T06:40:21;2.40;1.00
5930;DHT22;2990;48.746;9.236;2023-02-16T06:42:46;2.40;99.90
5930;DHT22;2990;48.746;9.236;2023-02-16T06:45:12;2.60;99.90
5930;DHT22;2990;48.746;9.236;2023-02-16T06:47:37;2.70;1.00
5930;DHT22;2990;48.746;9.236;2023-02-16T06:50:05;2.80;1.00
5930;DHT22;2990;48.746;9.236;2023-02-16T06:52:31;2.80;99.90
5930;DHT22;2990;48.746;9.236;2023-02-16T06:54:57;2.80;1.00
5930;DHT22;2990;48.746;9.236;2023-02-16T06:57:22;2.80;1.00
5930;DHT22;2990;48.746;9.236;2023-02-16T06:59:48;2.80;1.00
5930;DHT22;2990;48.746;9.236;2023-02-16T07:02:13;2.80;1.00
5930;DHT22;2990;48.746;9.236;2023-02-16T07:04:39;2.80;1.00
5930;DHT22;2990;48.746;9.236;2023-02-16T07:07:05;2.80;1.00
5930;DHT22;2990;48.746;9.236;2023-02-16T07:09:30;2.80;1.00
5930;DHT22;2990;48.746;9.236;2023-02-16T07:11:56;2.80;1.00
5930;DHT22;2990;48.746;9.236;2023-02-16T07:14:21;2.80;1.00
5930;DHT22;2990;48.746;9.236;2023-02-16T07:16:47;2.80;99.90
5930;DHT22;2990;48.746;9.236;2023-02-16T07:19:13;2.90;99.90
5930;DHT22;2990;48.746;9.236;2023-02-16T07:21:38;2.90;99.90
5930;DHT22;2990;48.746;9.236;2023-02-16T07:24:04;2.90;99.90
5930;DHT22;2990;48.746;9.236;2023-02-16T07:26:30;2.90;99.90
5930;DHT22;2990;48.746;9.236;2023-02-16T07:28:56;2.90;99.90
5930;DHT22;2990;48.746;9.236;2023-02-16T07:31:21;3.00;99.90
5930;DHT22;2990;48.746;9.236;2023-02-16T07:33:50;3.10;1.00
5930;DHT22;2990;48.746;9.236;2023-02-16T07:36:16;3.10;1.00
5930;DHT22;2990;48.746;9.236;2023-02-16T07:38:42;3.20;1.00
5930;DHT22;2990;48.746;9.236;2023-02-16T07:41:08;3.40;1.00
5930;DHT22;2990;48.746;9.236;2023-02-16T07:43:33;3.40;1.00
5930;DHT22;2990;48.746;9.236;2023-02-16T07:45:59;3.40;1.00
5930;DHT22;2990;48.746;9.236;2023-02-16T07:48:25;3.50;99.90
5930;DHT22;2990;48.746;9.236;2023-02-16T07:50:51;3.50;99.90
5930;DHT22;2990;48.746;9.236;2023-02-16T07:53:17;3.50;99.90
5930;DHT22;2990;48.746;9.236;2023-02-16T07:55:44;3.50;99.90
5930;DHT22;2990;48.746;9.236;2023-02-16T07:58:10;3.50;99.90
5930;DHT22;2990;48.746;9.236;2023-02-16T08:00:36;3.50;99.90
5930;DHT22;2990;48.746;9.236;2023-02-16T08:03:02;3.50;99.90
5930;DHT22;2990;48.746;9.236;2023-02-16T08:05:28;3.60;99.90
5930;DHT22;2990;48.746;9.236;2023-02-16T08:07:54;3.70;99.90
5930;DHT22;2990;48.746;9.236;2023-02-16T08:10:20;3.70;99.90
5930;DHT22;2990;48.746;9.236;2023-02-16T08:12:46;3.80;99.90
5930;DHT22;2990;48.746;9.236;2023-02-16T08:15:14;3.80;99.90
5930;DHT22;2990;48.746;9.236;2023-02-16T08:17:39;3.80;99.90
5930;DHT22;2990;48.746;9.236;2023-02-16T08:20:06;3.90;99.90
5930;DHT22;2990;48.746;9.236;2023-02-16T08:22:32;3.90;38.10
5930;DHT22;2990;48.746;9.236;2023-02-16T08:24:57;3.90;55.50
5930;DHT22;2990;48.746;9.236;2023-02-16T08:27:24;4.00;99.90
5930;DHT22;2990;48.746;9.236;2023-02-16T08:29:51;4.00;94.10
5930;DHT22;2990;48.746;9.236;2023-02-16T08:32:17;4.20;16.10
5930;DHT22;2990;48.746;9.236;2023-02-16T08:34:43;4.40;1.00
5930;DHT22;2990;48.746;9.236;2023-02-16T08:37:11;4.60;1.00
5930;DHT22;2990;48.746;9.236;2023-02-16T08:39:38;4.90;1.00
5930;DHT22;2990;48.746;9.236;2023-02-16T08:42:03;5.20;1.00
5930;DHT22;2990;48.746;9.236;2023-02-16T08:44:29;5.50;1.00
5930;DHT22;2990;48.746;9.236;2023-02-16T08:46:57;5.70;99.90
5930;DHT22;2990;48.746;9.236;2023-02-16T08:49:24;6.00;99.90
5930;DHT22;2990;48.746;9.236;2023-02-16T08:51:52;6.20;99.90
5930;DHT22;2990;48.746;9.236;2023-02-16T08:54:24;6.30;99.90
5930;DHT22;2990;48.746;9.236;2023-02-16T08:56:51;6.60;99.90
5930;DHT22;2990;48.746;9.236;2023-02-16T08:59:18;6.80;99.90
5930;DHT22;2990;48.746;9.236;2023-02-16T09:01:44;6.90;99.90
5930;DHT22;2990;48.746;9.236;2023-02-16T09:04:10;7.10;99.90
5930;DHT22;2990;48.746;9.236;2023-02-16T09:06:38;7.40;99.90
5930;DHT22;2990;48.746;9.236;2023-02-16T09:09:05;7.60;99.90
5930;DHT22;2990;48.746;9.236;2023-02-16T09:11:31;7.90;99.90
5930;DHT22;2990;48.746;9.236;2023-02-16T09:13:57;8.20;99.90
5930;DHT22;2990;48.746;9.236;2023-02-16T09:16:23;8.50;99.90
5930;DHT22;2990;48.746;9.236;2023-02-16T09:18:49;8.60;99.90
5930;DHT22;2990;48.746;9.236;2023-02-16T09:21:20;8.80;99.90
5930;DHT22;2990;48.746;9.236;2023-02-16T09:23:48;8.90;99.90
5930;DHT22;2990;48.746;9.236;2023-02-16T09:26:15;9.30;99.90
5930;DHT22;2990;48.746;9.236;2023-02-16T09:28:41;9.30;99.90
5930;DHT22;2990;48.746;9.236;2023-02-16T09:31:19;9.50;99.90
5930;DHT22;2990;48.746;9.236;2023-02-16T09:33:53;9.70;99.90
5930;DHT22;2990;48.746;9.236;2023-02-16T09:36:19;9.90;99.90
5930;DHT22;2990;48.746;9.236;2023-02-16T09:38:44;10.10;99.90
5930;DHT22;2990;48.746;9.236;2023-02-16T09:44:18;10.60;99.90
5930;DHT22;2990;48.746;9.236;2023-02-16T09:46:47;10.80;99.90
5930;DHT22;2990;48.746;9.236;2023-02-16T09:49:34;11.10;99.90
5930;DHT22;2990;48.746;9.236;2023-02-16T10:02:52;12.10;96.60
5930;DHT22;2990;48.746;9.236;2023-02-16T10:05:31;11.90;94.20
5930;DHT22;2990;48.746;9.236;2023-02-16T10:08:05;12.10;98.10
5930;DHT22;2990;48.746;9.236;2023-02-16T10:10:41;12.10;90.80
5930;DHT22;2990;48.746;9.236;2023-02-16T10:13:23;12.30;94.20
5930;DHT22;2990;48.746;9.236;2023-02-16T10:15:52;12.50;95.50
5930;DHT22;2990;48.746;9.236;2023-02-16T10:18:45;12.40;86.00
5930;DHT22;2990;48.746;9.236;2023-02-16T10:21:16;12.60;90.60
5930;DHT22;2990;48.746;9.236;2023-02-16T10:23:44;12.70;91.00
5930;DHT22;2990;48.746;9.236;2023-02-16T10:28:49;12.90;74.30
5930;DHT22;2990;48.746;9.236;2023-02-16T10:31:21;13.20;67.10
5930;DHT22;2990;48.746;9.236;2023-02-16T10:34:17;13.20;64.50
5930;DHT22;2990;48.746;9.236;2023-02-16T10:43:15;13.60;51.20
5930;DHT22;2990;48.746;9.236;2023-02-16T10:48:15;13.60;56.80
5930;DHT22;2990;48.746;9.236;2023-02-16T10:50:45;13.50;59.40
5930;DHT22;2990;48.746;9.236;2023-02-16T10:53:41;13.60;57.30
5930;DHT22;2990;48.746;9.236;2023-02-16T10:58:58;13.90;35.00
5930;DHT22;2990;48.746;9.236;2023-02-16T11:01:36;14.20;42.00
5930;DHT22;2990;48.746;9.236;2023-02-16T11:04:03;14.10;40.60
5930;DHT22;2990;48.746;9.236;2023-02-16T11:06:29;14.20;35.80
5930;DHT22;2990;48.746;9.236;2023-02-16T11:09:00;14.40;30.40
5930;DHT22;2990;48.746;9.236;2023-02-16T11:11:37;14.70;31.90
5930;DHT22;2990;48.746;9.236;2023-02-16T11:14:19;14.90;27.10
5930;DHT22;2990;48.746;9.236;2023-02-16T11:16:46;15.00;31.90
5930;DHT22;2990;48.746;9.236;2023-02-16T11:19:21;15.00;29.20
5930;DHT22;2990;48.746;9.236;2023-02-16T11:21:52;14.90;29.80
5930;DHT22;2990;48.746;9.236;2023-02-16T11:24:31;15.00;4.80
5930;DHT22;2990;48.746;9.236;2023-02-16T11:27:34;15.20;15.40
5930;DHT22;2990;48.746;9.236;2023-02-16T11:30:14;15.10;5.60
5930;DHT22;2990;48.746;9.236;2023-02-16T11:32:47;15.30;1.00
5930;DHT22;2990;48.746;9.236;2023-02-16T11:35:13;15.30;9.50
5930;DHT22;2990;48.746;9.236;2023-02-16T11:37:39;15.20;1.00
5930;DHT22;2990;48.746;9.236;2023-02-16T11:40:28;15.00;3.00
5930;DHT22;2990;48.746;9.236;2023-02-16T11:42:56;15.00;1.00
5930;DHT22;2990;48.746;9.236;2023-02-16T11:45:41;15.10;1.00
5930;DHT22;2990;48.746;9.236;2023-02-16T11:48:12;15.10;1.00
5930;DHT22;2990;48.746;9.236;2023-02-16T11:51:14;15.30;1.00
5930;DHT22;2990;48.746;9.236;2023-02-16T11:53:42;15.60;1.00
5930;DHT22;2990;48.746;9.236;2023-02-16T11:58:40;15.60;1.00
5930;DHT22;2990;48.746;9.236;2023-02-16T12:01:26;15.80;1.00
5930;DHT22;2990;48.746;9.236;2023-02-16T12:06:45;15.50;1.00
5930;DHT22;2990;48.746;9.236;2023-02-16T12:20:40;15.60;1.00
5930;DHT22;2990;48.746;9.236;2023-02-16T12:23:24;15.70;1.00
5930;DHT22;2990;48.746;9.236;2023-02-16T12:28:49;16.00;1.00
5930;DHT22;2990;48.746;9.236;2023-02-16T12:34:13;16.10;1.00
5930;DHT22;2990;48.746;9.236;2023-02-16T12:41:57;16.50;1.00
5930;DHT22;2990;48.746;9.236;2023-02-16T12:44:36;16.50;1.00
5930;DHT22;2990;48.746;9.236;2023-02-16T12:47:05;16.60;1.00
5930;DHT22;2990;48.746;9.236;2023-02-16T12:49:51;16.60;1.00
5930;DHT22;2990;48.746;9.236;2023-02-16T12:52:31;16.80;1.00
5930;DHT22;2990;48.746;9.236;2023-02-16T12:55:18;16.80;1.00
5930;DHT22;2990;48.746;9.236;2023-02-16T13:00:45;16.50;1.00
5930;DHT22;2990;48.746;9.236;2023-02-16T13:09:02;16.30;1.00
5930;DHT22;2990;48.746;9.236;2023-02-16T13:11:37;16.20;1.00
5930;DHT22;2990;48.746;9.236;2023-02-16T13:14:16;16.20;1.00
5930;DHT22;2990;48.746;9.236;2023-02-16T13:16:55;16.00;1.00
5930;DHT22;2990;48.746;9.236;2023-02-16T13:19:21;16.00;1.00
5930;DHT22;2990;48.746;9.236;2023-02-16T13:22:10;15.70;1.00
5930;DHT22;2990;48.746;9.236;2023-02-16T13:27:45;15.70;1.00
5930;DHT22;2990;48.746;9.236;2023-02-16T13:33:11;15.50;1.00
5930;DHT22;2990;48.746;9.236;2023-02-16T13:41:40;15.20;1.00
5930;DHT22;2990;48.746;9.236;2023-02-16T13:44:11;15.20;1.00
5930;DHT22;2990;48.746;9.236;2023-02-16T13:46:43;15.20;1.00
5930;DHT22;2990;48.746;9.236;2023-02-16T13:49:34;15.30;1.00
5930;DHT22;2990;48.746;9.236;2023-02-16T13:52:03;15.20;1.00
5930;DHT22;2990;48.746;9.236;2023-02-16T13:54:35;15.10;1.00
5930;DHT22;2990;48.746;9.236;2023-02-16T13:57:02;15.20;1.00
5930;DHT22;2990;48.746;9.236;2023-02-16T14:01:55;15.00;1.00
5930;DHT22;2990;48.746;9.236;2023-02-16T14:06:47;14.80;1.00
5930;DHT22;2990;48.746;9.236;2023-02-16T14:17:27;14.50;1.00
5930;DHT22;2990;48.746;9.236;2023-02-16T14:22:55;14.50;1.00
5930;DHT22;2990;48.746;9.236;2023-02-16T14:25:36;14.40;1.00
5930;DHT22;2990;48.746;9.236;2023-02-16T14:30:32;14.10;1.00
5930;DHT22;2990;48.746;9.236;2023-02-16T14:35:38;14.10;1.00
5930;DHT22;2990;48.746;9.236;2023-02-16T14:38:06;14.20;5.90
5930;DHT22;2990;48.746;9.236;2023-02-16T14:40:54;14.10;5.10
5930;DHT22;2990;48.746;9.236;2023-02-16T14:43:41;14.00;13.70
5930;DHT22;2990;48.746;9.236;2023-02-16T14:57:20;13.80;16.50
5930;DHT22;2990;48.746;9.236;2023-02-16T15:00:03;13.70;16.10
5930;DHT22;2990;48.746;9.236;2023-02-16T15:02:39;13.60;20.70
5930;DHT22;2990;48.746;9.236;2023-02-16T15:05:20;13.50;17.60
5930;DHT22;2990;48.746;9.236;2023-02-16T15:07:48;13.50;13.60
5930;DHT22;2990;48.746;9.236;2023-02-16T15:10:20;13.50;19.00
5930;DHT22;2990;48.746;9.236;2023-02-16T15:12:46;13.50;15.90
5930;DHT22;2990;48.746;9.236;2023-02-16T15:18:03;13.50;24.10
5930;DHT22;2990;48.746;9.236;2023-02-16T15:20:32;13.40;23.00
5930;DHT22;2990;48.746;9.236;2023-02-16T15:23:01;13.30;14.10
5930;DHT22;2990;48.746;9.236;2023-02-16T15:25:29;13.20;10.50
5930;DHT22;2990;48.746;9.236;2023-02-16T15:30:32;13.10;27.80
5930;DHT22;2990;48.746;9.236;2023-02-16T15:33:11;13.10;24.90
5930;DHT22;2990;48.746;9.236;2023-02-16T15:35:40;12.90;19.70
5930;DHT22;2990;48.746;9.236;2023-02-16T15:40:37;12.90;20.40
5930;DHT22;2990;48.746;9.236;2023-02-16T15:43:37;12.90;17.10
5930;DHT22;2990;48.746;9.236;2023-02-16T15:46:06;12.80;24.50
5930;DHT22;2990;48.746;9.236;2023-02-16T15:48:38;12.70;14.30
5930;DHT22;2990;48.746;9.236;2023-02-16T15:51:13;12.60;1.80
5930;DHT22;2990;48.746;9.236;2023-02-16T15:53:53;12.60;1.00
5930;DHT22;2990;48.746;9.236;2023-02-16T15:56:47;12.50;8.50
5930;DHT22;2990;48.746;9.236;2023-02-16T15:59:32;12.40;11.70
5930;DHT22;2990;48.746;9.236;2023-02-16T16:02:11;12.60;1.00
5930;DHT22;2990;48.746;9.236;2023-02-16T16:04:53;12.50;23.70
5930;DHT22;2990;48.746;9.236;2023-02-16T16:07:37;12.40;21.10
5930;DHT22;2990;48.746;9.236;2023-02-16T16:10:34;12.40;20.70
5930;DHT22;2990;48.746;9.236;2023-02-16T16:13:12;12.30;21.60
5930;DHT22;2990;48.746;9.236;2023-02-16T16:15:41;12.20;21.50
5930;DHT22;2990;48.746;9.236;2023-02-16T16:18:38;12.10;22.30
5930;DHT22;2990;48.746;9.236;2023-02-16T16:21:26;12.10;23.20
5930;DHT22;2990;48.746;9.236;2023-02-16T16:24:02;12.10;24.10
5930;DHT22;2990;48.746;9.236;2023-02-16T16:26:31;12.00;23.30
5930;DHT22;2990;48.746;9.236;2023-02-16T16:29:00;11.90;25.00
5930;DHT22;2990;48.746;9.236;2023-02-16T16:36:38;11.80;21.10
5930;DHT22;2990;48.746;9.236;2023-02-16T16:39:10;11.80;25.60
5930;DHT22;2990;48.746;9.236;2023-02-16T16:41:38;11.70;24.00
5930;DHT22;2990;48.746;9.236;2023-02-16T16:44:09;11.70;28.50
5930;DHT22;2990;48.746;9.236;2023-02-16T16:46:37;11.60;22.90
5930;DHT22;2990;48.746;9.236;2023-02-16T16:49:03;11.60;29.20
5930;DHT22;2990;48.746;9.236;2023-02-16T16:51:39;11.50;27.90
5930;DHT22;2990;48.746;9.236;2023-02-16T16:54:10;11.50;31.10
5930;DHT22;2990;48.746;9.236;2023-02-16T16:56:39;11.40;33.00
5930;DHT22;2990;48.746;9.236;2023-02-16T16:59:06;11.40;30.70
5930;DHT22;2990;48.746;9.236;2023-02-16T17:01:32;11.30;28.60
5930;DHT22;2990;48.746;9.236;2023-02-16T17:03:59;11.30;42.60
5930;DHT22;2990;48.746;9.236;2023-02-16T17:06:25;11.30;39.90
5930;DHT22;2990;48.746;9.236;2023-02-16T17:08:51;11.20;36.40
5930;DHT22;2990;48.746;9.236;2023-02-16T17:11:25;11.20;37.90
5930;DHT22;2990;48.746;9.236;2023-02-16T17:13:51;11.20;38.20
5930;DHT22;2990;48.746;9.236;2023-02-16T17:16:25;11.10;39.00
5930;DHT22;2990;48.746;9.236;2023-02-16T17:18:51;11.10;38.20
5930;DHT22;2990;48.746;9.236;2023-02-16T17:21:17;11.10;41.40
5930;DHT22;2990;48.746;9.236;2023-02-16T17:23:43;11.10;41.90
5930;DHT22;2990;48.746;9.236;2023-02-16T17:26:08;11.10;41.30
5930;DHT22;2990;48.746;9.236;2023-02-16T17:28:34;11.10;48.60
5930;DHT22;2990;48.746;9.236;2023-02-16T17:31:06;10.90;45.50
5930;DHT22;2990;48.746;9.236;2023-02-16T17:33:41;11.10;42.90
5930;DHT22;2990;48.746;9.236;2023-02-16T17:36:12;11.00;47.90
5930;DHT22;2990;48.746;9.236;2023-02-16T17:38:42;11.10;46.50
5930;DHT22;2990;48.746;9.236;2023-02-16T17:41:24;10.90;47.90
5930;DHT22;2990;48.746;9.236;2023-02-16T17:43:51;10.90;43.90
5930;DHT22;2990;48.746;9.236;2023-02-16T17:46:32;10.90;49.20
5930;DHT22;2990;48.746;9.236;2023-02-16T17:48:58;10.90;46.30
5930;DHT22;2990;48.746;9.236;2023-02-16T17:51:24;10.80;45.10
5930;DHT22;2990;48.746;9.236;2023-02-16T17:53:59;10.90;49.40
5930;DHT22;2990;48.746;9.236;2023-02-16T17:56:25;10.80;49.60
5930;DHT22;2990;48.746;9.236;2023-02-16T17:58:51;10.70;43.70
5930;DHT22;2990;48.746;9.236;2023-02-16T18:01:23;10.80;20.00
5930;DHT22;2990;48.746;9.236;2023-02-16T18:03:58;11.00;15.70
5930;DHT22;2990;48.746;9.236;2023-02-16T18:06:24;10.70;29.30
5930;DHT22;2990;48.746;9.236;2023-02-16T18:08:50;10.70;33.60
5930;DHT22;2990;48.746;9.236;2023-02-16T18:11:16;10.70;40.00
5930;DHT22;2990;48.746;9.236;2023-02-16T18:13:42;10.60;45.70
5930;DHT22;2990;48.746;9.236;2023-02-16T18:16:13;10.60;30.70
5930;DHT22;2990;48.746;9.236;2023-02-16T18:18:39;10.60;36.50
5930;DHT22;2990;48.746;9.236;2023-02-16T18:21:06;10.60;37.10
5930;DHT22;2990;48.746;9.236;2023-02-16T18:23:32;10.60;32.50
5930;DHT22;2990;48.746;9.236;2023-02-16T18:26:00;10.50;40.60
5930;DHT22;2990;48.746;9.236;2023-02-16T18:28:28;10.60;36.60
5930;DHT22;2990;48.746;9.236;2023-02-16T18:30:58;10.50;14.50
5930;DHT22;2990;48.746;9.236;2023-02-16T18:33:25;10.40;28.20
5930;DHT22;2990;48.746;9.236;2023-02-16T18:39:19;10.40;51.10
5930;DHT22;2990;48.746;9.236;2023-02-16T18:41:45;10.40;42.20
5930;DHT22;2990;48.746;9.236;2023-02-16T18:44:11;10.40;35.20
5930;DHT22;2990;48.746;9.236;2023-02-16T18:46:36;10.40;54.70
5930;DHT22;2990;48.746;9.236;2023-02-16T18:49:02;10.40;53.90
5930;DHT22;2990;48.746;9.236;2023-02-16T18:51:28;10.40;51.50
5930;DHT22;2990;48.746;9.236;2023-02-16T18:53:56;10.40;44.00
5930;DHT22;2990;48.746;9.236;2023-02-16T18:56:24;10.40;36.40
5930;DHT22;2990;48.746;9.236;2023-02-16T18:58:50;10.40;36.60
5930;DHT22;2990;48.746;9.236;2023-02-16T19:04:52;10.50;29.50
5930;DHT22;2990;48.746;9.236;2023-02-16T19:07:18;10.40;40.90
5930;DHT22;2990;48.746;9.236;2023-02-16T19:09:43;10.30;35.80
5930;DHT22;2990;48.746;9.236;2023-02-16T19:12:15;10.30;56.00
5930;DHT22;2990;48.746;9.236;2023-02-16T19:14:40;10.50;12.00